Time;durP1;ratioP1;P1;durP2;ratioP2;P2;SDS_P1;SDS_P2;PMS_P1;PMS_P2;Temp;Humidity;BMP_temperature;BMP_pressure;BME280_temperature;BME280_humidity;BME280_pressure;Samples;Min_cycle;Max_cycle;Signal;HPM_P1;HPM_P2
2022/05/20 00:00:54;;;;;;;;;;;18.10;44.60;;;;;;4956986;29;19911;-61
2022/05/20 00:03:19;;;;;;;;;;;18.00;45.90;;;;;;4957110;29;19917;-61
2022/05/20 00:05:45;;;;;;;;;;;18.00;45.40;;;;;;4957302;29;20272;-61
2022/05/20 00:08:10;;;;;;;;;;;18.00;46.10;;;;;;4957150;29;19910;-62
2022/05/20 00:10:36;;;;;;;;;;;18.00;45.90;;;;;;4956813;29;19916;-61
2022/05/20 00:13:02;;;;;;;;;;;18.00;46.20;;;;;;4957076;29;19911;-62
2022/05/20 00:15:28;;;;;;;;;;;17.90;46.20;;;;;;4956776;29;20377;-61
2022/05/20 00:17:55;;;;;;;;;;;17.80;47.30;;;;;;4956995;29;20001;-64
2022/05/20 00:20:21;;;;;;;;;;;17.80;46.80;;;;;;4956791;29;19942;-62
2022/05/20 00:22:47;;;;;;;;;;;17.70;47.10;;;;;;4956755;29;19956;-61
2022/05/20 00:27:58;;;;;;;;;;;17.90;45.30;;;;;;4956507;29;19929;-61
2022/05/20 00:30:24;;;;;;;;;;;17.90;45.70;;;;;;4939508;29;20363;-61
2022/05/20 00:32:49;;;;;;;;;;;17.80;45.30;;;;;;4956494;29;19906;-61
2022/05/20 00:35:15;;;;;;;;;;;17.80;45.50;;;;;;4956714;29;19922;-61
2022/05/20 00:37:40;;;;;;;;;;;17.80;44.80;;;;;;4956578;29;20054;-63
2022/05/20 00:40:07;;;;;;;;;;;17.90;44.70;;;;;;4956523;29;19917;-62
2022/05/20 00:42:34;;;;;;;;;;;17.90;45.10;;;;;;4956483;29;20418;-62
2022/05/20 00:44:59;;;;;;;;;;;17.90;44.30;;;;;;4956542;29;19911;-61
2022/05/20 00:47:25;;;;;;;;;;;17.80;45.20;;;;;;4956581;29;20285;-60
2022/05/20 00:49:53;;;;;;;;;;;17.80;45.80;;;;;;4956663;29;19942;-61
2022/05/20 00:52:21;;;;;;;;;;;17.80;46.40;;;;;;4956509;29;19910;-61
2022/05/20 00:54:48;;;;;;;;;;;17.80;46.70;;;;;;4939188;29;20001;-61
2022/05/20 00:57:21;;;;;;;;;;;17.70;47.70;;;;;;4956228;29;19919;-62
2022/05/20 00:59:50;;;;;;;;;;;17.80;47.00;;;;;;4956659;29;19910;-61
2022/05/20 01:02:17;;;;;;;;;;;17.80;47.30;;;;;;4956365;29;19958;-61
2022/05/20 01:04:43;;;;;;;;;;;17.70;47.90;;;;;;4956175;29;19910;-61
2022/05/20 01:07:09;;;;;;;;;;;17.60;48.00;;;;;;4956074;28;19918;-61
2022/05/20 01:09:36;;;;;;;;;;;17.60;47.80;;;;;;4955875;29;20495;-62
2022/05/20 01:12:02;;;;;;;;;;;17.70;49.30;;;;;;4956071;29;19957;-61
2022/05/20 01:14:27;;;;;;;;;;;17.60;49.20;;;;;;4955862;29;19950;-60
2022/05/20 01:16:53;;;;;;;;;;;17.60;48.90;;;;;;4938748;29;19945;-60
2022/05/20 01:19:26;;;;;;;;;;;17.60;49.20;;;;;;4956257;29;19922;-61
2022/05/20 01:21:51;;;;;;;;;;;17.50;49.90;;;;;;4956059;29;19911;-62
2022/05/20 01:24:17;;;;;;;;;;;17.60;49.70;;;;;;4956064;29;20274;-61
2022/05/20 01:26:42;;;;;;;;;;;17.60;49.50;;;;;;4956069;29;20256;-62
2022/05/20 01:29:08;;;;;;;;;;;17.60;50.60;;;;;;4956092;29;19969;-60
2022/05/20 01:31:34;;;;;;;;;;;17.50;50.30;;;;;;4955897;29;19911;-60
2022/05/20 01:33:59;;;;;;;;;;;17.70;50.00;;;;;;4955815;29;19918;-62
2022/05/20 01:36:25;;;;;;;;;;;17.80;49.80;;;;;;4956191;29;20362;-62
2022/05/20 01:38:55;;;;;;;;;;;17.80;50.00;;;;;;4955931;29;19997;-61
2022/05/20 01:41:20;;;;;;;;;;;17.70;50.30;;;;;;4955588;29;19957;-62
2022/05/20 01:43:55;;;;;;;;;;;17.60;51.30;;;;;;4955869;29;19954;-61
2022/05/20 01:46:26;;;;;;;;;;;17.60;51.80;;;;;;4955742;29;20334;-61
2022/05/20 01:48:59;;;;;;;;;;;17.60;51.70;;;;;;4955653;29;19953;-61
2022/05/20 01:51:27;;;;;;;;;;;17.50;53.10;;;;;;4955609;29;20017;-61
2022/05/20 01:53:55;;;;;;;;;;;17.50;52.30;;;;;;4957814;29;19952;-62
2022/05/20 01:56:42;;;;;;;;;;;17.50;51.90;;;;;;4962461;29;19924;-61
2022/05/20 01:59:12;;;;;;;;;;;17.50;51.60;;;;;;4962927;29;20389;-61
2022/05/20 02:01:48;;;;;;;;;;;17.40;52.70;;;;;;4961255;29;19933;-62
2022/05/20 02:04:18;;;;;;;;;;;17.40;52.20;;;;;;4955773;29;20363;-62
2022/05/20 02:06:49;;;;;;;;;;;17.40;51.90;;;;;;4955656;29;19910;-62
2022/05/20 02:09:17;;;;;;;;;;;17.40;51.60;;;;;;4955633;29;20284;-61
2022/05/20 02:11:49;;;;;;;;;;;17.50;49.80;;;;;;4955395;29;20050;-61
2022/05/20 02:14:25;;;;;;;;;;;17.50;51.10;;;;;;4937998;29;20333;-61
2022/05/20 02:17:10;;;;;;;;;;;17.50;51.60;;;;;;4955550;29;19966;-62
2022/05/20 02:19:42;;;;;;;;;;;17.40;50.80;;;;;;4955798;28;19910;-62
2022/05/20 02:22:10;;;;;;;;;;;17.50;51.00;;;;;;4959128;29;19911;-61
2022/05/20 02:24:37;;;;;;;;;;;17.40;51.40;;;;;;4959027;29;19914;-60
2022/05/20 02:27:05;;;;;;;;;;;17.50;51.80;;;;;;4959196;29;20275;-61
2022/05/20 02:29:36;;;;;;;;;;;17.40;51.50;;;;;;4959567;29;19922;-61
2022/05/20 02:32:22;;;;;;;;;;;17.40;51.60;;;;;;4941805;29;20276;-61
2022/05/20 02:34:49;;;;;;;;;;;17.50;51.10;;;;;;4958654;29;19923;-61
2022/05/20 02:37:22;;;;;;;;;;;17.50;50.70;;;;;;4958755;29;19918;-61
2022/05/20 02:39:48;;;;;;;;;;;17.50;49.50;;;;;;4959024;29;19915;-61
2022/05/20 02:42:14;;;;;;;;;;;17.40;50.90;;;;;;4958865;29;20375;-61
2022/05/20 02:44:39;;;;;;;;;;;17.50;50.80;;;;;;4958841;29;20274;-61
2022/05/20 02:47:05;;;;;;;;;;;17.40;50.90;;;;;;4958692;29;19911;-61
2022/05/20 02:49:30;;;;;;;;;;;17.50;50.20;;;;;;4958710;29;20332;-61
2022/05/20 02:51:56;;;;;;;;;;;17.40;49.70;;;;;;4958478;29;20355;-61
2022/05/20 02:54:22;;;;;;;;;;;17.50;50.00;;;;;;4958567;29;19910;-62
2022/05/20 02:56:47;;;;;;;;;;;17.50;49.90;;;;;;4958739;29;19960;-62
2022/05/20 03:04:44;;;;;;;;;;;17.50;51.00;;;;;;4958777;29;20426;-62
2022/05/20 03:07:09;;;;;;;;;;;17.50;50.50;;;;;;4958530;29;19911;-61
2022/05/20 03:09:35;;;;;;;;;;;17.50;50.30;;;;;;4958235;29;19993;-61
2022/05/20 03:12:00;;;;;;;;;;;17.40;50.40;;;;;;4958112;29;20121;-62
2022/05/20 03:14:26;;;;;;;;;;;17.40;50.30;;;;;;4958359;29;19914;-60
2022/05/20 03:16:51;;;;;;;;;;;17.60;49.50;;;;;;4957967;29;20294;-61
2022/05/20 03:19:18;;;;;;;;;;;17.60;49.10;;;;;;4958156;29;19993;-61
2022/05/20 03:21:44;;;;;;;;;;;17.50;49.40;;;;;;4957926;29;19911;-63
2022/05/20 03:24:10;;;;;;;;;;;17.50;50.00;;;;;;4958071;29;20290;-61
2022/05/20 03:26:36;;;;;;;;;;;17.50;50.30;;;;;;4957848;29;19926;-61
2022/05/20 03:29:03;;;;;;;;;;;17.40;50.60;;;;;;4957784;29;20421;-60
2022/05/20 03:31:29;;;;;;;;;;;17.40;50.30;;;;;;4957671;28;20387;-63
2022/05/20 03:33:55;;;;;;;;;;;17.30;50.60;;;;;;4958273;29;19915;-61
2022/05/20 03:36:21;;;;;;;;;;;17.30;50.50;;;;;;4957823;29;19918;-61
2022/05/20 03:38:47;;;;;;;;;;;17.30;50.70;;;;;;4957991;29;20013;-61
2022/05/20 03:41:13;;;;;;;;;;;17.30;50.90;;;;;;4957673;29;19950;-61
2022/05/20 03:43:39;;;;;;;;;;;17.30;50.40;;;;;;4957453;29;20283;-62
2022/05/20 03:46:04;;;;;;;;;;;17.30;50.20;;;;;;4957514;29;19915;-62
2022/05/20 03:48:30;;;;;;;;;;;17.30;51.00;;;;;;4957476;29;20275;-62
2022/05/20 03:50:56;;;;;;;;;;;17.30;51.00;;;;;;4957746;29;19910;-62
2022/05/20 03:53:21;;;;;;;;;;;17.20;51.40;;;;;;4957525;29;19921;-62
2022/05/20 03:55:47;;;;;;;;;;;17.20;52.20;;;;;;4957344;29;20286;-62
2022/05/20 03:58:13;;;;;;;;;;;17.20;52.50;;;;;;4957414;29;19910;-61
2022/05/20 04:03:23;;;;;;;;;;;17.20;52.60;;;;;;4957821;29;19917;-62
2022/05/20 04:05:49;;;;;;;;;;;17.10;52.80;;;;;;4957079;29;19910;-62
2022/05/20 04:08:16;;;;;;;;;;;17.20;51.40;;;;;;4957326;29;19923;-62
2022/05/20 04:10:41;;;;;;;;;;;17.20;51.60;;;;;;4957169;29;19910;-61
2022/05/20 04:13:07;;;;;;;;;;;17.30;51.00;;;;;;4956955;29;19911;-61
2022/05/20 04:15:32;;;;;;;;;;;17.50;50.20;;;;;;4957345;29;20013;-60
2022/05/20 04:17:58;;;;;;;;;;;17.50;50.60;;;;;;4957095;29;19921;-63
2022/05/20 04:20:23;;;;;;;;;;;17.50;50.90;;;;;;4957357;29;20420;-61
2022/05/20 04:22:49;;;;;;;;;;;17.50;51.50;;;;;;4956801;29;19910;-60
2022/05/20 04:25:15;;;;;;;;;;;17.50;51.80;;;;;;4956980;29;19957;-60
2022/05/20 04:27:40;;;;;;;;;;;17.50;51.90;;;;;;4939489;29;19922;-62
2022/05/20 04:30:06;;;;;;;;;;;17.60;51.50;;;;;;4957002;29;20354;-61
2022/05/20 04:32:32;;;;;;;;;;;17.50;52.40;;;;;;4956586;29;20263;-62
2022/05/20 04:34:57;;;;;;;;;;;17.50;53.10;;;;;;4956860;29;20297;-61
2022/05/20 04:37:23;;;;;;;;;;;17.50;52.70;;;;;;4956760;29;20005;-63
2022/05/20 04:39:49;;;;;;;;;;;17.60;53.00;;;;;;4956750;29;19918;-62
2022/05/20 04:47:43;;;;;;;;;;;17.60;52.40;;;;;;4956630;29;19965;-62
2022/05/20 04:50:08;;;;;;;;;;;17.60;52.00;;;;;;4956591;29;20118;-60
2022/05/20 04:52:34;;;;;;;;;;;17.70;51.80;;;;;;4956510;29;20311;-62
2022/05/20 04:55:00;;;;;;;;;;;17.70;52.10;;;;;;4956482;29;19925;-62
2022/05/20 04:57:32;;;;;;;;;;;17.70;52.60;;;;;;4956800;29;20022;-62
2022/05/20 05:00:08;;;;;;;;;;;17.80;52.80;;;;;;4956219;29;19911;-61
2022/05/20 05:02:34;;;;;;;;;;;17.90;53.70;;;;;;4956133;29;19918;-61
2022/05/20 05:05:00;;;;;;;;;;;17.90;54.60;;;;;;4956216;29;19914;-60
2022/05/20 05:07:25;;;;;;;;;;;17.90;55.20;;;;;;4956024;29;20346;-60
2022/05/20 05:09:53;;;;;;;;;;;18.00;55.60;;;;;;4956116;29;19911;-61
2022/05/20 05:12:18;;;;;;;;;;;18.10;55.90;;;;;;4955959;29;19910;-61
2022/05/20 05:14:46;;;;;;;;;;;18.20;54.90;;;;;;4956094;29;19915;-60
2022/05/20 05:17:12;;;;;;;;;;;18.20;56.10;;;;;;4956161;29;19910;-61
2022/05/20 05:19:39;;;;;;;;;;;18.10;56.70;;;;;;4955928;29;20302;-61
2022/05/20 05:22:05;;;;;;;;;;;18.20;56.30;;;;;;4955864;29;19921;-61
2022/05/20 05:24:30;;;;;;;;;;;18.20;58.10;;;;;;4956081;29;19918;-60
2022/05/20 05:26:56;;;;;;;;;;;18.20;58.00;;;;;;4955872;29;19918;-60
2022/05/20 05:29:22;;;;;;;;;;;18.30;58.30;;;;;;4956015;29;19915;-62
2022/05/20 05:31:48;;;;;;;;;;;18.40;58.80;;;;;;4955895;29;19911;-62
2022/05/20 05:34:14;;;;;;;;;;;18.40;60.80;;;;;;4956451;29;20324;-61
2022/05/20 05:36:40;;;;;;;;;;;18.40;63.40;;;;;;4956435;29;20009;-61
2022/05/20 05:39:05;;;;;;;;;;;18.40;64.30;;;;;;4956667;29;20009;-63
2022/05/20 05:41:31;;;;;;;;;;;18.40;64.10;;;;;;4956681;29;19911;-63
2022/05/20 05:44:03;;;;;;;;;;;18.70;64.90;;;;;;4955819;29;19918;-60
2022/05/20 05:46:30;;;;;;;;;;;19.30;59.80;;;;;;4955613;29;20426;-59
2022/05/20 05:48:55;;;;;;;;;;;20.10;58.00;;;;;;4955416;29;19910;-62
2022/05/20 05:51:21;;;;;;;;;;;20.80;58.60;;;;;;4955315;29;19914;-62
2022/05/20 05:53:47;;;;;;;;;;;21.30;57.00;;;;;;4956537;28;19953;-60
2022/05/20 05:56:13;;;;;;;;;;;21.70;56.00;;;;;;4959466;29;20367;-64
2022/05/20 05:58:38;;;;;;;;;;;22.00;56.20;;;;;;4959407;29;20254;-63
2022/05/20 06:01:04;;;;;;;;;;;22.30;55.60;;;;;;4942329;29;19919;-63
2022/05/20 06:03:30;;;;;;;;;;;22.50;54.80;;;;;;4959400;29;20266;-61
2022/05/20 06:05:56;;;;;;;;;;;22.70;54.00;;;;;;4959252;29;19911;-66
2022/05/20 06:08:21;;;;;;;;;;;22.90;53.30;;;;;;4959374;29;19990;-62
2022/05/20 06:10:47;;;;;;;;;;;23.10;52.70;;;;;;4959074;29;19918;-62
2022/05/20 06:13:13;;;;;;;;;;;23.20;52.20;;;;;;4959141;29;20382;-64
2022/05/20 06:15:39;;;;;;;;;;;23.30;52.00;;;;;;4958962;29;20312;-62
2022/05/20 06:18:05;;;;;;;;;;;23.40;51.70;;;;;;4959169;29;19937;-62
2022/05/20 06:20:31;;;;;;;;;;;23.60;51.20;;;;;;4958759;29;20367;-63
2022/05/20 06:22:58;;;;;;;;;;;23.70;50.70;;;;;;4958899;29;19921;-63
2022/05/20 06:25:23;;;;;;;;;;;23.70;50.40;;;;;;4959052;29;19911;-65
2022/05/20 06:27:49;;;;;;;;;;;23.80;50.00;;;;;;4959117;29;20449;-63
2022/05/20 06:30:17;;;;;;;;;;;24.00;50.00;;;;;;4958874;29;19922;-62
2022/05/20 06:32:43;;;;;;;;;;;24.20;49.50;;;;;;4958601;29;19918;-62
2022/05/20 06:40:44;;;;;;;;;;;24.60;48.70;;;;;;4959298;29;19921;-62
2022/05/20 06:43:14;;;;;;;;;;;24.70;48.40;;;;;;4958557;29;19954;-61
2022/05/20 06:45:40;;;;;;;;;;;24.80;47.90;;;;;;4958745;29;20375;-63
2022/05/20 06:48:06;;;;;;;;;;;24.90;47.90;;;;;;4958325;29;20356;-60
2022/05/20 06:50:31;;;;;;;;;;;24.90;47.50;;;;;;4958556;29;19917;-62
2022/05/20 06:52:57;;;;;;;;;;;24.90;47.00;;;;;;4958497;29;19918;-60
2022/05/20 06:55:23;;;;;;;;;;;24.80;46.30;;;;;;4958394;29;19919;-62
2022/05/20 06:57:51;;;;;;;;;;;24.90;46.00;;;;;;4958097;29;19950;-62
2022/05/20 07:00:16;;;;;;;;;;;24.90;46.40;;;;;;4958270;29;19914;-65
2022/05/20 07:02:43;;;;;;;;;;;24.90;46.90;;;;;;4958177;29;20382;-63
2022/05/20 07:05:09;;;;;;;;;;;25.00;46.00;;;;;;4957580;28;19936;-69
2022/05/20 07:07:37;;;;;;;;;;;25.10;45.80;;;;;;4957764;29;19918;-69
2022/05/20 07:10:03;;;;;;;;;;;25.30;46.00;;;;;;4958663;29;19911;-63
2022/05/20 07:12:28;;;;;;;;;;;25.40;45.10;;;;;;4963474;29;19922;-62
2022/05/20 07:14:54;;;;;;;;;;;25.50;45.20;;;;;;4968816;29;19918;-62
2022/05/20 07:17:20;;;;;;;;;;;25.60;45.30;;;;;;4967476;29;19929;-63
2022/05/20 07:19:46;;;;;;;;;;;25.30;44.20;;;;;;4955832;29;19911;-60
2022/05/20 07:22:12;;;;;;;;;;;25.50;44.30;;;;;;4959736;29;19994;-63
2022/05/20 07:24:38;;;;;;;;;;;25.40;43.30;;;;;;4959519;29;19911;-65
2022/05/20 07:27:04;;;;;;;;;;;25.40;44.00;;;;;;4950411;29;19949;-63
2022/05/20 07:29:29;;;;;;;;;;;25.50;44.10;;;;;;4948750;29;20001;-65
2022/05/20 07:31:55;;;;;;;;;;;25.60;43.40;;;;;;4949102;29;19961;-68
2022/05/20 07:34:20;;;;;;;;;;;25.60;42.60;;;;;;4947356;29;19914;-59
2022/05/20 07:36:46;;;;;;;;;;;25.60;43.50;;;;;;4951793;29;19915;-63
2022/05/20 07:39:11;;;;;;;;;;;25.60;43.30;;;;;;4920129;29;19911;-72
2022/05/20 07:41:37;;;;;;;;;;;25.50;42.40;;;;;;4944342;29;20386;-74
2022/05/20 07:44:03;;;;;;;;;;;25.50;43.30;;;;;;4948562;29;19911;-64
2022/05/20 07:46:28;;;;;;;;;;;25.50;43.30;;;;;;4946955;29;19927;-63
2022/05/20 07:48:54;;;;;;;;;;;25.60;43.00;;;;;;4949258;29;20334;-62
2022/05/20 07:51:21;;;;;;;;;;;25.60;42.80;;;;;;4946428;29;19915;-62
2022/05/20 07:54:07;;;;;;;;;;;25.70;42.70;;;;;;4948069;29;20250;-63
2022/05/20 07:56:38;;;;;;;;;;;25.60;42.60;;;;;;4945018;29;20283;-63
2022/05/20 07:59:03;;;;;;;;;;;25.50;42.50;;;;;;4946237;29;19911;-64
2022/05/20 08:01:30;;;;;;;;;;;25.40;42.70;;;;;;4947630;29;19917;-70
2022/05/20 08:06:43;;;;;;;;;;;25.40;43.70;;;;;;4947715;29;20378;-63
2022/05/20 08:09:09;;;;;;;;;;;25.40;43.50;;;;;;4946394;29;19911;-63
2022/05/20 08:11:35;;;;;;;;;;;25.50;43.40;;;;;;4946739;29;20251;-63
2022/05/20 08:14:00;;;;;;;;;;;25.50;43.60;;;;;;4939567;29;19915;-61
2022/05/20 08:16:26;;;;;;;;;;;25.60;43.10;;;;;;4937458;29;19927;-60
2022/05/20 08:18:52;;;;;;;;;;;25.50;43.30;;;;;;4944108;29;19949;-69
2022/05/20 08:21:17;;;;;;;;;;;25.60;43.90;;;;;;4946202;29;19917;-64
2022/05/20 08:23:45;;;;;;;;;;;25.60;44.30;;;;;;4912980;29;19915;-58
2022/05/20 08:26:11;;;;;;;;;;;25.80;43.80;;;;;;4942601;29;19970;-61
2022/05/20 08:28:37;;;;;;;;;;;25.80;44.10;;;;;;4945567;29;19974;-62
2022/05/20 08:31:03;;;;;;;;;;;25.80;44.90;;;;;;4946744;29;19915;-60
2022/05/20 08:33:28;;;;;;;;;;;25.80;44.40;;;;;;4948168;29;19911;-73
2022/05/20 08:35:54;;;;;;;;;;;25.70;44.30;;;;;;4963221;23;20021;-64
2022/05/20 08:38:21;;;;;;;;;;;25.70;44.90;;;;;;4938062;29;20024;-63
2022/05/20 08:40:47;;;;;;;;;;;25.80;44.70;;;;;;4943524;29;20398;-66
2022/05/20 08:43:13;;;;;;;;;;;25.90;45.10;;;;;;4943962;29;19915;-66
2022/05/20 08:45:38;;;;;;;;;;;25.90;44.10;;;;;;4937207;29;20015;-64
2022/05/20 08:48:05;;;;;;;;;;;25.90;44.30;;;;;;4937135;29;19917;-65
2022/05/20 08:50:37;;;;;;;;;;;25.90;44.30;;;;;;4936912;29;20367;-64
2022/05/20 08:53:03;;;;;;;;;;;25.80;43.50;;;;;;4936998;29;19933;-67
2022/05/20 08:55:29;;;;;;;;;;;25.70;43.60;;;;;;4919779;29;19922;-62
2022/05/20 08:57:59;;;;;;;;;;;25.70;44.60;;;;;;4938780;29;19911;-64
2022/05/20 09:00:25;;;;;;;;;;;25.60;44.40;;;;;;4936753;29;19927;-62
2022/05/20 09:02:50;;;;;;;;;;;25.60;44.30;;;;;;4945293;29;19911;-63
2022/05/20 09:05:19;;;;;;;;;;;25.60;44.50;;;;;;4955941;29;20013;-63
2022/05/20 09:07:59;;;;;;;;;;;25.60;44.80;;;;;;4955404;29;19917;-63
2022/05/20 09:10:32;;;;;;;;;;;25.60;45.00;;;;;;4955541;29;20064;-64
2022/05/20 09:13:05;;;;;;;;;;;25.60;45.80;;;;;;4955384;29;19921;-64
2022/05/20 09:15:49;;;;;;;;;;;25.60;45.30;;;;;;4955681;29;19925;-65
2022/05/20 09:18:34;;;;;;;;;;;25.60;44.70;;;;;;4955875;29;19918;-63
2022/05/20 09:20:59;;;;;;;;;;;25.60;45.10;;;;;;4955434;29;19911;-64
2022/05/20 09:23:25;;;;;;;;;;;25.70;44.10;;;;;;4955793;29;20393;-63
2022/05/20 09:26:07;;;;;;;;;;;25.60;44.80;;;;;;4955404;29;19966;-64
2022/05/20 09:28:33;;;;;;;;;;;25.60;45.10;;;;;;4955317;28;20010;-62
2022/05/20 09:31:05;;;;;;;;;;;25.60;43.30;;;;;;4955422;29;20005;-64
2022/05/20 09:33:31;;;;;;;;;;;25.50;43.50;;;;;;4955379;29;19914;-64
2022/05/20 09:35:58;;;;;;;;;;;25.40;43.10;;;;;;4955331;29;19962;-63
2022/05/20 09:38:40;;;;;;;;;;;25.40;42.80;;;;;;4955263;29;19918;-65
2022/05/20 09:41:16;;;;;;;;;;;25.10;41.20;;;;;;4955467;29;19917;-63
2022/05/20 09:43:43;;;;;;;;;;;25.20;41.40;;;;;;4955650;29;19945;-63
2022/05/20 09:46:24;;;;;;;;;;;25.10;41.20;;;;;;4955648;29;20437;-64
2022/05/20 09:48:55;;;;;;;;;;;25.10;41.70;;;;;;4955475;29;19911;-65
2022/05/20 09:51:29;;;;;;;;;;;25.00;39.40;;;;;;4955823;29;19910;-65
2022/05/20 09:54:13;;;;;;;;;;;24.90;40.90;;;;;;4955408;29;19917;-65
2022/05/20 09:56:42;;;;;;;;;;;24.90;42.00;;;;;;4955598;29;19926;-64
2022/05/20 09:59:14;;;;;;;;;;;24.80;40.00;;;;;;4955607;29;19914;-64
2022/05/20 10:01:44;;;;;;;;;;;24.80;42.00;;;;;;4938212;29;19910;-65
2022/05/20 10:04:12;;;;;;;;;;;24.80;38.50;;;;;;4955397;29;19950;-66
2022/05/20 10:06:41;;;;;;;;;;;24.80;40.90;;;;;;4955741;29;19922;-65
2022/05/20 10:09:15;;;;;;;;;;;24.80;41.10;;;;;;4955292;29;20429;-65
2022/05/20 10:11:56;;;;;;;;;;;24.80;39.50;;;;;;4955083;29;19910;-65
2022/05/20 10:14:25;;;;;;;;;;;24.80;39.60;;;;;;4955113;29;19910;-64
2022/05/20 10:16:53;;;;;;;;;;;24.80;38.20;;;;;;4955077;29;19911;-64
2022/05/20 10:19:28;;;;;;;;;;;24.80;38.20;;;;;;4955229;29;19998;-64
2022/05/20 10:22:14;;;;;;;;;;;24.80;39.10;;;;;;4955176;29;19910;-64
2022/05/20 10:24:41;;;;;;;;;;;24.80;36.00;;;;;;4954884;29;19910;-65
2022/05/20 10:27:17;;;;;;;;;;;24.80;36.50;;;;;;4955233;29;19918;-64
2022/05/20 10:32:57;;;;;;;;;;;24.80;37.00;;;;;;4954741;29;19969;-65
2022/05/20 10:35:27;;;;;;;;;;;24.80;37.30;;;;;;4955010;29;20267;-65
2022/05/20 10:38:01;;;;;;;;;;;24.80;38.30;;;;;;4955214;29;19915;-63
2022/05/20 10:40:43;;;;;;;;;;;24.80;37.80;;;;;;4955471;28;20010;-64
2022/05/20 10:43:09;;;;;;;;;;;24.90;38.50;;;;;;4958311;29;20379;-66
2022/05/20 10:48:50;;;;;;;;;;;25.00;34.00;;;;;;4958672;29;19932;-65
2022/05/20 10:51:22;;;;;;;;;;;25.00;36.40;;;;;;4892881;29;19919;-63
2022/05/20 10:53:57;;;;;;;;;;;25.00;37.00;;;;;;4919676;29;19918;-64
2022/05/20 10:56:48;;;;;;;;;;;24.90;37.10;;;;;;4919811;29;19919;-71
2022/05/20 10:59:32;;;;;;;;;;;25.10;38.50;;;;;;4898725;29;20022;-68
2022/05/20 11:02:16;;;;;;;;;;;25.10;36.80;;;;;;4898414;29;19915;-63
2022/05/20 11:04:45;;;;;;;;;;;25.00;37.70;;;;;;4917116;29;19919;-66
2022/05/20 11:07:25;;;;;;;;;;;25.00;38.10;;;;;;4919598;29;19911;-59
2022/05/20 11:10:09;;;;;;;;;;;25.00;38.30;;;;;;4919545;29;19911;-66
2022/05/20 11:12:53;;;;;;;;;;;25.00;36.70;;;;;;4919556;29;19911;-61
2022/05/20 11:15:37;;;;;;;;;;;24.90;36.70;;;;;;4935601;29;20376;-62
2022/05/20 11:18:09;;;;;;;;;;;25.00;37.90;;;;;;4938799;29;19958;-63
2022/05/20 11:20:34;;;;;;;;;;;24.90;33.90;;;;;;4937627;29;19922;-65
2022/05/20 11:23:00;;;;;;;;;;;24.90;35.60;;;;;;4937807;29;19915;-62
2022/05/20 11:25:25;;;;;;;;;;;25.00;35.60;;;;;;4938106;29;19910;-63
2022/05/20 11:28:26;;;;;;;;;;;25.10;35.50;;;;;;4938136;29;19910;-68
2022/05/20 11:31:07;;;;;;;;;;;25.20;35.30;;;;;;4916906;29;19918;-62
2022/05/20 11:33:33;;;;;;;;;;;25.30;36.80;;;;;;4935674;29;19965;-65
2022/05/20 11:36:15;;;;;;;;;;;25.30;34.50;;;;;;4937626;29;20017;-67
2022/05/20 11:38:56;;;;;;;;;;;25.30;37.00;;;;;;4937922;29;19911;-62
2022/05/20 11:41:23;;;;;;;;;;;25.40;32.70;;;;;;4937830;29;19911;-64
2022/05/20 11:43:48;;;;;;;;;;;25.40;35.60;;;;;;4937858;29;19911;-64
2022/05/20 11:46:24;;;;;;;;;;;25.40;35.70;;;;;;4937848;29;19917;-64
2022/05/20 11:49:09;;;;;;;;;;;25.40;34.20;;;;;;4937819;29;19911;-66
2022/05/20 11:51:53;;;;;;;;;;;25.40;36.70;;;;;;4937370;29;19911;-67
2022/05/20 11:54:19;;;;;;;;;;;25.40;35.60;;;;;;4937757;29;20283;-63
2022/05/20 11:56:51;;;;;;;;;;;25.40;33.40;;;;;;4940494;29;20363;-62
2022/05/20 11:59:17;;;;;;;;;;;25.30;33.80;;;;;;4948963;29;20363;-64
2022/05/20 12:01:44;;;;;;;;;;;25.30;33.90;;;;;;4945013;29;19918;-67
2022/05/20 12:04:11;;;;;;;;;;;25.40;35.00;;;;;;4944490;29;19918;-68
2022/05/20 12:06:45;;;;;;;;;;;25.30;36.90;;;;;;4937292;29;19914;-72
2022/05/20 12:09:30;;;;;;;;;;;25.30;37.90;;;;;;4937021;29;20026;-64
2022/05/20 12:12:08;;;;;;;;;;;25.30;37.80;;;;;;4936854;29;19910;-70
2022/05/20 12:14:52;;;;;;;;;;;25.30;38.50;;;;;;4936674;29;20394;-69
2022/05/20 12:17:38;;;;;;;;;;;25.30;37.80;;;;;;4937302;29;20020;-71
2022/05/20 12:25:44;;;;;;;;;;;25.20;37.90;;;;;;4937558;29;19957;-63
2022/05/20 12:28:26;;;;;;;;;;;25.10;38.40;;;;;;4936867;29;19946;-62
2022/05/20 12:31:14;;;;;;;;;;;25.20;36.90;;;;;;4919389;29;19925;-62
2022/05/20 12:33:57;;;;;;;;;;;25.20;34.60;;;;;;4939009;29;19994;-63
2022/05/20 12:36:29;;;;;;;;;;;25.20;37.20;;;;;;4936367;29;19923;-61
2022/05/20 12:39:10;;;;;;;;;;;25.20;36.80;;;;;;4936146;29;19918;-62
2022/05/20 12:41:35;;;;;;;;;;;25.20;36.60;;;;;;4938852;29;19957;-63
2022/05/20 12:44:16;;;;;;;;;;;25.20;38.70;;;;;;4935994;29;20318;-64
2022/05/20 12:46:42;;;;;;;;;;;25.20;39.10;;;;;;4950753;29;20006;-66
2022/05/20 12:49:07;;;;;;;;;;;25.30;39.90;;;;;;4936008;29;20050;-62
2022/05/20 12:51:44;;;;;;;;;;;25.30;40.20;;;;;;4935942;29;19958;-66
2022/05/20 12:54:28;;;;;;;;;;;25.30;41.40;;;;;;4935951;29;19997;-61
2022/05/20 12:57:04;;;;;;;;;;;25.10;42.30;;;;;;4938628;29;19918;-66
2022/05/20 12:59:30;;;;;;;;;;;25.10;42.50;;;;;;4935808;29;20373;-60
2022/05/20 13:01:58;;;;;;;;;;;25.00;44.20;;;;;;4935774;29;19950;-61
2022/05/20 13:04:25;;;;;;;;;;;25.10;44.80;;;;;;4935856;29;19910;-65
2022/05/20 13:06:51;;;;;;;;;;;25.10;44.50;;;;;;4936621;29;20002;-64
2022/05/20 13:09:21;;;;;;;;;;;25.10;45.20;;;;;;4936846;29;19915;-68
2022/05/20 13:11:49;;;;;;;;;;;25.00;45.20;;;;;;4936631;29;19918;-66
2022/05/20 13:14:16;;;;;;;;;;;25.10;44.40;;;;;;4937599;29;20386;-64
2022/05/20 13:16:49;;;;;;;;;;;25.10;45.10;;;;;;4936792;29;20375;-66
2022/05/20 13:19:16;;;;;;;;;;;25.00;45.20;;;;;;4936588;29;20040;-60
2022/05/20 13:21:44;;;;;;;;;;;25.10;45.30;;;;;;4936554;29;19910;-69
2022/05/20 13:24:17;;;;;;;;;;;25.10;45.10;;;;;;4936617;29;19910;-70
2022/05/20 13:26:43;;;;;;;;;;;25.20;44.80;;;;;;4936793;29;19911;-65
2022/05/20 13:29:17;;;;;;;;;;;25.10;44.20;;;;;;4942361;29;20270;-69
2022/05/20 13:31:44;;;;;;;;;;;25.10;43.90;;;;;;4955569;29;19926;-69
2022/05/20 13:34:12;;;;;;;;;;;25.10;44.10;;;;;;4955075;29;20192;-68
2022/05/20 13:36:42;;;;;;;;;;;25.10;43.80;;;;;;4954642;29;19933;-70
2022/05/20 13:39:11;;;;;;;;;;;25.00;44.00;;;;;;4946250;29;20001;-70
2022/05/20 13:41:38;;;;;;;;;;;25.10;43.70;;;;;;4945381;29;19911;-69
2022/05/20 13:44:04;;;;;;;;;;;25.10;43.60;;;;;;4944223;29;19923;-69
2022/05/20 13:49:17;;;;;;;;;;;25.00;43.00;;;;;;4943814;29;19953;-71
2022/05/20 13:51:55;;;;;;;;;;;25.10;43.30;;;;;;4943891;29;19910;-70
2022/05/20 13:54:25;;;;;;;;;;;25.10;42.90;;;;;;4944383;29;20299;-70
2022/05/20 13:56:52;;;;;;;;;;;24.90;42.60;;;;;;4941744;29;19923;-70
2022/05/20 13:59:33;;;;;;;;;;;25.00;43.40;;;;;;4944789;29;19917;-69
2022/05/20 14:02:04;;;;;;;;;;;25.10;43.20;;;;;;4944110;29;19993;-72
2022/05/20 14:04:35;;;;;;;;;;;25.10;43.00;;;;;;4941986;29;19978;-71
2022/05/20 14:07:02;;;;;;;;;;;25.00;43.10;;;;;;4946469;29;19958;-71
2022/05/20 14:09:28;;;;;;;;;;;24.90;41.10;;;;;;4944037;29;20271;-69
2022/05/20 14:11:54;;;;;;;;;;;24.80;41.00;;;;;;4942976;29;20350;-71
2022/05/20 14:14:28;;;;;;;;;;;24.80;39.40;;;;;;4936137;29;20290;-74
2022/05/20 14:16:53;;;;;;;;;;;24.80;41.80;;;;;;4938672;29;19919;-71
2022/05/20 14:19:26;;;;;;;;;;;24.90;42.50;;;;;;4939415;29;19918;-70
2022/05/20 14:21:54;;;;;;;;;;;24.90;40.70;;;;;;4939783;29;20302;-71
2022/05/20 14:24:21;;;;;;;;;;;24.90;41.40;;;;;;4939501;29;19917;-73
2022/05/20 14:26:48;;;;;;;;;;;24.80;40.80;;;;;;4939572;29;20093;-71
2022/05/20 14:29:16;;;;;;;;;;;24.90;41.80;;;;;;4939396;29;20359;-73
2022/05/20 14:31:55;;;;;;;;;;;24.80;41.20;;;;;;4939431;29;19917;-70
2022/05/20 14:34:27;;;;;;;;;;;24.90;41.90;;;;;;4939203;29;19971;-69
2022/05/20 14:36:53;;;;;;;;;;;24.90;41.30;;;;;;4939071;29;19927;-73
2022/05/20 14:39:21;;;;;;;;;;;24.90;40.70;;;;;;4939357;29;20379;-69
2022/05/20 14:42:05;;;;;;;;;;;24.80;39.90;;;;;;4939090;29;19911;-66
2022/05/20 14:44:31;;;;;;;;;;;24.70;38.70;;;;;;4939200;29;19932;-60
2022/05/20 14:47:23;;;;;;;;;;;24.50;40.00;;;;;;4938947;29;19911;-65
2022/05/20 14:49:50;;;;;;;;;;;24.60;40.40;;;;;;4916821;29;20434;-66
2022/05/20 14:52:30;;;;;;;;;;;24.60;40.30;;;;;;4938845;29;19911;-58
2022/05/20 14:54:57;;;;;;;;;;;24.60;40.90;;;;;;4939041;29;19915;-60
2022/05/20 14:57:22;;;;;;;;;;;24.60;40.20;;;;;;4938848;29;19919;-64
2022/05/20 15:00:04;;;;;;;;;;;24.70;41.20;;;;;;4922193;29;19911;-63
2022/05/20 15:02:30;;;;;;;;;;;24.70;41.90;;;;;;4938849;29;20375;-65
2022/05/20 15:04:55;;;;;;;;;;;24.70;42.70;;;;;;4938541;29;19911;-62
2022/05/20 15:07:21;;;;;;;;;;;24.60;42.00;;;;;;4938817;29;20072;-66